NHX12 EHTP-EHTP
Flight info
| Callsign | NHX12 |
|---|---|
| Flight time | 0h 1m |
| Altitude | 1500 |
| Route | VFR |
| Aircraft | EC45/M-SDGRY/SB2 |
Departure
| Time | 2026-05-04 11:46 |
|---|---|
| Airport | Maasvlakte Heliport (EHTP) |
Arrival
| Time | 2026-05-04 11:48 |
|---|---|
| Airport | Maasvlakte Heliport (EHTP) |
| Time | Latitude | Longitude | Altitude | Speed | Heading |
|---|---|---|---|---|---|
| 2026-05-04 11:43 | 51.95943 | 4.08985 | 25 ft | 0 kts | 153° |
| 2026-05-04 11:43 | 51.95938 | 4.08982 | 31 ft | 3 kts | 75° |
| 2026-05-04 11:44 | 51.95938 | 4.09010 | 37 ft | 1 kts | 300° |
| 2026-05-04 11:44 | 51.95938 | 4.09001 | 25 ft | 0 kts | 298° |
| 2026-05-04 11:44 | 51.95942 | 4.08996 | 41 ft | 3 kts | 298° |
| 2026-05-04 11:45 | 51.96216 | 4.08826 | 135 ft | 83 kts | 342° |
| 2026-05-04 11:45 | 51.96686 | 4.08763 | 130 ft | 110 kts | 349° |
| 2026-05-04 11:45 | 51.96816 | 4.08750 | 154 ft | 111 kts | 349° |
| 2026-05-04 11:46 | 51.97503 | 4.08423 | 355 ft | 103 kts | 324° |
| 2026-05-04 11:46 | 51.97957 | 4.07495 | 464 ft | 108 kts | 302° |
| 2026-05-04 11:46 | 51.98338 | 4.06425 | 588 ft | 111 kts | 296° |
| 2026-05-04 11:46 | 51.98684 | 4.05282 | 639 ft | 114 kts | 293° |
| 2026-05-04 11:47 | 51.98980 | 4.04096 | 637 ft | 115 kts | 290° |
| 2026-05-04 11:47 | 51.99224 | 4.02847 | 692 ft | 118 kts | 286° |
| 2026-05-04 11:47 | 51.99423 | 4.01517 | 609 ft | 124 kts | 282° |
| 2026-05-04 11:47 | 51.99571 | 4.00108 | 535 ft | 129 kts | 277° |
| 2026-05-04 11:48 | 51.99664 | 3.98631 | 479 ft | 130 kts | 276° |
| 2026-05-04 11:48 | 51.99610 | 3.98319 | 28 ft | 36 kts | 213° |
| 2026-05-04 11:48 | 51.99394 | 3.97880 | 223 ft | 68 kts | 245° |
| 2026-05-04 11:48 | 51.99213 | 3.96969 | 396 ft | 102 kts | 250° |
| 2026-05-04 11:49 | 51.99097 | 3.95659 | 429 ft | 127 kts | 253° |
| 2026-05-04 11:49 | 51.99083 | 3.94200 | 428 ft | 133 kts | 259° |
| 2026-05-04 11:49 | 51.99168 | 3.92688 | 423 ft | 133 kts | 264° |
| 2026-05-04 11:49 | 51.99336 | 3.91225 | 420 ft | 131 kts | 269° |
| 2026-05-04 11:50 | 51.99579 | 3.89750 | 424 ft | 133 kts | 274° |
| 2026-05-04 11:50 | 51.99875 | 3.88348 | 417 ft | 131 kts | 276° |
| 2026-05-04 11:50 | 51.99927 | 3.86922 | 463 ft | 129 kts | 251° |
| 2026-05-04 11:50 | 51.99777 | 3.85512 | 671 ft | 125 kts | 252° |
| 2026-05-04 11:51 | 51.99728 | 3.84101 | 909 ft | 125 kts | 256° |
| 2026-05-04 11:51 | 51.99664 | 3.82722 | 1190 ft | 120 kts | 250° |
| 2026-05-04 11:51 | 51.99557 | 3.81380 | 857 ft | 118 kts | 242° |
| 2026-05-04 11:51 | 51.99362 | 3.80107 | 325 ft | 112 kts | 251° |
| 2026-05-04 11:52 | 51.99772 | 3.79535 | 243 ft | 92 kts | 15° |
| 2026-05-04 11:52 | 52.00038 | 3.80293 | 241 ft | 56 kts | 68° |
| 2026-05-04 11:52 | 52.00099 | 3.80695 | 244 ft | 25 kts | 81° |
| 2026-05-04 11:52 | 52.00121 | 3.80862 | 233 ft | 21 kts | 80° |
| 2026-05-04 11:53 | 52.00155 | 3.81074 | 231 ft | 18 kts | 81° |
| 2026-05-04 11:53 | 52.00165 | 3.81222 | 135 ft | 9 kts | 98° |
| 2026-05-04 11:53 | 52.00159 | 3.81255 | 99 ft | 0 kts | 82° |
| 2026-05-04 11:53 | 52.00158 | 3.81254 | 98 ft | 0 kts | 80° |
| 2026-05-04 11:55 | 52.00147 | 3.81257 | 80 ft | 0 kts | 82° |
| 2026-05-04 11:56 | 52.00146 | 3.81256 | 69 ft | 0 kts | 80° |
| 2026-05-04 11:56 | 52.00146 | 3.81257 | 65 ft | 0 kts | 79° |
| 2026-05-04 11:56 | 52.00146 | 3.81256 | 63 ft | 0 kts | 79° |
| 2026-05-04 11:57 | 52.00171 | 3.81359 | 148 ft | 36 kts | 62° |
| 2026-05-04 11:57 | 52.00319 | 3.81940 | 327 ft | 74 kts | 51° |
| 2026-05-04 11:57 | 52.00741 | 3.82668 | 377 ft | 104 kts | 46° |
| 2026-05-04 11:57 | 52.01202 | 3.83664 | 307 ft | 113 kts | 53° |
| 2026-05-04 11:58 | 52.01543 | 3.84741 | 234 ft | 92 kts | 73° |
| 2026-05-04 11:58 | 52.01607 | 3.85358 | 169 ft | 26 kts | 105° |
| 2026-05-04 11:58 | 52.01589 | 3.85609 | 146 ft | 15 kts | 104° |
| 2026-05-04 11:58 | 52.01587 | 3.85786 | 150 ft | 15 kts | 92° |
| 2026-05-04 11:59 | 52.01588 | 3.85959 | 149 ft | 16 kts | 91° |
| 2026-05-04 11:59 | 52.01590 | 3.86139 | 150 ft | 15 kts | 91° |
| 2026-05-04 11:59 | 52.01593 | 3.86312 | 148 ft | 16 kts | 91° |
| 2026-05-04 11:59 | 52.01677 | 3.86598 | 360 ft | 49 kts | 89° |
| 2026-05-04 12:00 | 52.01938 | 3.87397 | 318 ft | 99 kts | 43° |
| 2026-05-04 12:00 | 52.02215 | 3.88236 | 356 ft | 65 kts | 77° |
| 2026-05-04 12:00 | 52.02209 | 3.88703 | 265 ft | 30 kts | 86° |
| 2026-05-04 12:00 | 52.02242 | 3.88947 | 157 ft | 18 kts | 85° |
| 2026-05-04 12:01 | 52.02248 | 3.89161 | 82 ft | 19 kts | 100° |
| 2026-05-04 12:01 | 52.02238 | 3.89381 | 78 ft | 20 kts | 100° |
| 2026-05-04 12:02 | 52.01902 | 3.93063 | 332 ft | 121 kts | 109° |
| 2026-05-04 12:03 | 52.01606 | 3.94348 | 442 ft | 124 kts | 110° |
| 2026-05-04 12:03 | 52.01272 | 3.95643 | 566 ft | 124 kts | 114° |
| 2026-05-04 12:03 | 52.00911 | 3.96912 | 662 ft | 122 kts | 113° |
| 2026-05-04 12:03 | 52.00542 | 3.98157 | 639 ft | 125 kts | 116° |
| 2026-05-04 12:04 | 52.00273 | 3.99476 | 642 ft | 121 kts | 102° |
| 2026-05-04 12:04 | 52.00079 | 4.00811 | 635 ft | 123 kts | 101° |
| 2026-05-04 12:04 | 51.99895 | 4.02131 | 636 ft | 117 kts | 102° |
| 2026-05-04 12:04 | 51.99726 | 4.03430 | 632 ft | 120 kts | 101° |
| 2026-05-04 12:05 | 51.99556 | 4.04764 | 637 ft | 119 kts | 96° |
| 2026-05-04 12:05 | 51.99604 | 4.06066 | 631 ft | 119 kts | 73° |
| 2026-05-04 12:05 | 51.99934 | 4.07277 | 638 ft | 116 kts | 59° |
| 2026-05-04 12:05 | 52.00286 | 4.08445 | 628 ft | 117 kts | 64° |
| 2026-05-04 12:06 | 52.00590 | 4.09660 | 630 ft | 113 kts | 68° |
| 2026-05-04 12:06 | 52.00845 | 4.10904 | 626 ft | 118 kts | 70° |
| 2026-05-04 12:06 | 52.01051 | 4.12161 | 628 ft | 114 kts | 71° |
| 2026-05-04 12:06 | 52.01372 | 4.13344 | 624 ft | 115 kts | 44° |
| 2026-05-04 12:07 | 52.02034 | 4.13984 | 629 ft | 112 kts | 25° |
| 2026-05-04 12:07 | 52.02696 | 4.14662 | 634 ft | 112 kts | 31° |
| 2026-05-04 12:07 | 52.03328 | 4.15408 | 628 ft | 112 kts | 33° |
| 2026-05-04 12:07 | 52.03928 | 4.16228 | 624 ft | 113 kts | 39° |
| 2026-05-04 12:08 | 52.04505 | 4.17123 | 626 ft | 115 kts | 38° |
| 2026-05-04 12:08 | 52.05102 | 4.17978 | 634 ft | 114 kts | 34° |
| 2026-05-04 12:08 | 52.05711 | 4.18771 | 624 ft | 114 kts | 34° |
| 2026-05-04 12:08 | 52.06328 | 4.19578 | 624 ft | 115 kts | 35° |
| 2026-05-04 12:09 | 52.06932 | 4.20447 | 614 ft | 120 kts | 40° |
| 2026-05-04 12:09 | 52.07538 | 4.21425 | 621 ft | 125 kts | 42° |
| 2026-05-04 12:09 | 52.08122 | 4.22460 | 623 ft | 125 kts | 46° |
| 2026-05-04 12:09 | 52.08695 | 4.23523 | 623 ft | 124 kts | 45° |
| 2026-05-04 12:10 | 52.09287 | 4.24533 | 623 ft | 123 kts | 40° |
| 2026-05-04 12:10 | 52.09957 | 4.25387 | 626 ft | 123 kts | 28° |
| 2026-05-04 12:10 | 52.10687 | 4.26085 | 628 ft | 123 kts | 28° |
| 2026-05-04 12:10 | 52.11375 | 4.26914 | 625 ft | 124 kts | 35° |
| 2026-05-04 12:11 | 52.12035 | 4.27843 | 626 ft | 127 kts | 40° |
| 2026-05-04 12:11 | 52.12673 | 4.28861 | 624 ft | 129 kts | 42° |
| 2026-05-04 12:11 | 52.13275 | 4.29943 | 630 ft | 127 kts | 42° |
| 2026-05-04 12:11 | 52.13941 | 4.30881 | 625 ft | 126 kts | 32° |
| 2026-05-04 12:12 | 52.14643 | 4.31702 | 621 ft | 126 kts | 30° |
| 2026-05-04 12:12 | 52.15375 | 4.32483 | 627 ft | 126 kts | 32° |
| 2026-05-04 12:12 | 52.16106 | 4.33258 | 613 ft | 127 kts | 30° |
| 2026-05-04 12:12 | 52.16838 | 4.34030 | 625 ft | 125 kts | 28° |
| 2026-05-04 12:13 | 52.17576 | 4.34789 | 618 ft | 126 kts | 29° |
| 2026-05-04 12:14 | 52.22872 | 4.39775 | 621 ft | 125 kts | 26° |
| 2026-05-04 12:15 | 52.23642 | 4.40447 | 618 ft | 125 kts | 25° |
| 2026-05-04 12:15 | 52.24412 | 4.41106 | 621 ft | 125 kts | 24° |
| 2026-05-04 12:15 | 52.25187 | 4.41766 | 622 ft | 126 kts | 25° |
| 2026-05-04 12:15 | 52.25951 | 4.42474 | 624 ft | 126 kts | 28° |
| 2026-05-04 12:16 | 52.26684 | 4.43225 | 623 ft | 124 kts | 32° |
| 2026-05-04 12:16 | 52.27388 | 4.44020 | 619 ft | 125 kts | 34° |
| 2026-05-04 12:16 | 52.28084 | 4.44877 | 622 ft | 124 kts | 35° |
| 2026-05-04 12:16 | 52.28778 | 4.45718 | 619 ft | 124 kts | 33° |
| 2026-05-04 12:17 | 52.29522 | 4.46422 | 627 ft | 123 kts | 23° |
| 2026-05-04 12:17 | 52.30321 | 4.46898 | 623 ft | 124 kts | 14° |
| 2026-05-04 12:17 | 52.31162 | 4.47238 | 627 ft | 124 kts | 10° |
| 2026-05-04 12:17 | 52.31987 | 4.47619 | 621 ft | 123 kts | 18° |
| 2026-05-04 12:18 | 52.32747 | 4.48253 | 627 ft | 124 kts | 28° |
| 2026-05-04 12:18 | 52.33478 | 4.49018 | 626 ft | 124 kts | 29° |
| 2026-05-04 12:18 | 52.34215 | 4.49718 | 626 ft | 123 kts | 26° |
| 2026-05-04 12:18 | 52.34979 | 4.50334 | 629 ft | 122 kts | 22° |
| 2026-05-04 12:19 | 52.35764 | 4.50875 | 625 ft | 123 kts | 19° |
| 2026-05-04 12:19 | 52.36543 | 4.51385 | 634 ft | 122 kts | 20° |
| 2026-05-04 12:19 | 52.37307 | 4.51985 | 631 ft | 121 kts | 23° |
| 2026-05-04 12:19 | 52.38092 | 4.52514 | 627 ft | 122 kts | 17° |
| 2026-05-04 12:20 | 52.38905 | 4.52951 | 624 ft | 123 kts | 14° |
| 2026-05-04 12:20 | 52.39705 | 4.53472 | 627 ft | 122 kts | 20° |
| 2026-05-04 12:20 | 52.40489 | 4.54045 | 624 ft | 123 kts | 20° |
| 2026-05-04 12:20 | 52.41281 | 4.54554 | 628 ft | 123 kts | 16° |
| 2026-05-04 12:21 | 52.42093 | 4.54965 | 624 ft | 120 kts | 12° |
| 2026-05-04 12:21 | 52.42902 | 4.55260 | 622 ft | 118 kts | 8° |
| 2026-05-04 12:21 | 52.43715 | 4.55450 | 622 ft | 120 kts | 4° |
| 2026-05-04 12:21 | 52.44547 | 4.55505 | 630 ft | 116 kts | 354° |
| 2026-05-04 12:22 | 52.45169 | 4.55250 | 640 ft | 68 kts | 340° |
| 2026-05-04 12:22 | 52.45583 | 4.55094 | 802 ft | 63 kts | 348° |
| 2026-05-04 12:22 | 52.46150 | 4.55206 | 565 ft | 104 kts | 30° |
| 2026-05-04 12:22 | 52.46425 | 4.56355 | 529 ft | 119 kts | 88° |
| 2026-05-04 12:23 | 52.46428 | 4.57674 | 722 ft | 112 kts | 87° |
| 2026-05-04 12:23 | 52.46441 | 4.58895 | 746 ft | 108 kts | 85° |
| 2026-05-04 12:23 | 52.46440 | 4.60137 | 648 ft | 110 kts | 87° |
| 2026-05-04 12:23 | 52.46393 | 4.61384 | 462 ft | 102 kts | 76° |
| 2026-05-04 12:24 | 52.46826 | 4.61316 | 322 ft | 91 kts | 297° |
| 2026-05-04 12:24 | 52.46845 | 4.60280 | 235 ft | 80 kts | 268° |
| 2026-05-04 12:24 | 52.46847 | 4.59568 | 129 ft | 48 kts | 295° |
| 2026-05-04 12:24 | 52.46944 | 4.59362 | 68 ft | 4 kts | 337° |
| 2026-05-04 12:25 | 52.46984 | 4.59347 | 27 ft | 1 kts | 337° |
| 2026-05-04 12:25 | 52.46987 | 4.59347 | 23 ft | 0 kts | 336° |
| 2026-05-04 12:27 | 52.46967 | 4.59345 | 71 ft | 9 kts | 338° |
| 2026-05-04 12:28 | 52.46866 | 4.59365 | 275 ft | 17 kts | 341° |
| 2026-05-04 12:28 | 52.46814 | 4.58854 | 584 ft | 61 kts | 262° |
| 2026-05-04 12:28 | 52.46761 | 4.57961 | 794 ft | 92 kts | 266° |
| 2026-05-04 12:28 | 52.46685 | 4.56859 | 969 ft | 103 kts | 262° |
| 2026-05-04 12:29 | 52.46519 | 4.55723 | 983 ft | 103 kts | 249° |
| 2026-05-04 12:29 | 52.46071 | 4.54828 | 992 ft | 104 kts | 214° |
| 2026-05-04 12:29 | 52.45364 | 4.54559 | 998 ft | 105 kts | 182° |
| 2026-05-04 12:29 | 52.44580 | 4.54437 | 913 ft | 108 kts | 184° |
| 2026-05-04 12:30 | 52.43908 | 4.54227 | 862 ft | 92 kts | 195° |
| 2026-05-04 12:30 | 52.43296 | 4.53990 | 802 ft | 89 kts | 197° |
| 2026-05-04 12:30 | 52.42659 | 4.53676 | 698 ft | 107 kts | 203° |
| 2026-05-04 12:30 | 52.41976 | 4.53204 | 916 ft | 102 kts | 208° |
| 2026-05-04 12:31 | 52.41374 | 4.52683 | 1139 ft | 101 kts | 212° |
| 2026-05-04 12:31 | 52.40772 | 4.52076 | 1127 ft | 100 kts | 215° |
| 2026-05-04 12:31 | 52.40117 | 4.51475 | 1118 ft | 112 kts | 208° |
| 2026-05-04 12:31 | 52.39463 | 4.50925 | 1042 ft | 113 kts | 212° |
| 2026-05-04 12:32 | 52.38735 | 4.50283 | 1056 ft | 115 kts | 209° |
| 2026-05-04 12:32 | 52.37223 | 4.49122 | 1024 ft | 121 kts | 205° |
| 2026-05-04 12:32 | 52.36412 | 4.48823 | 1018 ft | 123 kts | 188° |
| 2026-05-04 12:33 | 52.35562 | 4.48661 | 1016 ft | 123 kts | 191° |
| 2026-05-04 12:33 | 52.34737 | 4.48319 | 1015 ft | 122 kts | 204° |
| 2026-05-04 12:33 | 52.34231 | 4.47944 | 1013 ft | 119 kts | 209° |
| 2026-05-04 12:33 | 52.33461 | 4.47405 | 1017 ft | 120 kts | 204° |
| 2026-05-04 12:34 | 52.32666 | 4.46974 | 1010 ft | 122 kts | 200° |
| 2026-05-04 12:34 | 52.31866 | 4.46516 | 1013 ft | 120 kts | 205° |
| 2026-05-04 12:34 | 52.31133 | 4.45885 | 1014 ft | 118 kts | 212° |
| 2026-05-04 12:34 | 52.30421 | 4.45193 | 1015 ft | 119 kts | 212° |
| 2026-05-04 12:35 | 52.29718 | 4.44510 | 1012 ft | 120 kts | 212° |
| 2026-05-04 12:35 | 52.28996 | 4.43824 | 1008 ft | 119 kts | 213° |
| 2026-05-04 12:35 | 52.28272 | 4.43158 | 1011 ft | 118 kts | 212° |
| 2026-05-04 12:35 | 52.27546 | 4.42519 | 1011 ft | 119 kts | 211° |
| 2026-05-04 12:36 | 52.26805 | 4.41903 | 1009 ft | 121 kts | 210° |
| 2026-05-04 12:36 | 52.26052 | 4.41309 | 1012 ft | 118 kts | 208° |
| 2026-05-04 12:36 | 52.25309 | 4.40762 | 1013 ft | 119 kts | 207° |
| 2026-05-04 12:36 | 52.24546 | 4.40239 | 1010 ft | 121 kts | 204° |
| 2026-05-04 12:37 | 52.23768 | 4.39747 | 1007 ft | 120 kts | 202° |
| 2026-05-04 12:37 | 52.22977 | 4.39290 | 1007 ft | 120 kts | 201° |
| 2026-05-04 12:37 | 52.22183 | 4.38863 | 1008 ft | 119 kts | 201° |
| 2026-05-04 12:37 | 52.21384 | 4.38435 | 1008 ft | 121 kts | 203° |
| 2026-05-04 12:38 | 52.20618 | 4.37878 | 1006 ft | 120 kts | 211° |
| 2026-05-04 12:38 | 52.19916 | 4.37189 | 1014 ft | 117 kts | 218° |
| 2026-05-04 12:38 | 52.19269 | 4.36375 | 1009 ft | 118 kts | 224° |
| 2026-05-04 12:38 | 52.18656 | 4.35466 | 1012 ft | 118 kts | 224° |
| 2026-05-04 12:39 | 52.18013 | 4.34640 | 1010 ft | 119 kts | 217° |
| 2026-05-04 12:39 | 52.17323 | 4.33903 | 1007 ft | 118 kts | 215° |
| 2026-05-04 12:39 | 52.16594 | 4.33263 | 1003 ft | 121 kts | 208° |
| 2026-05-04 12:39 | 52.15841 | 4.32702 | 1009 ft | 119 kts | 212° |
| 2026-05-04 12:40 | 52.15208 | 4.31869 | 1012 ft | 117 kts | 232° |
| 2026-05-04 12:40 | 52.14775 | 4.30749 | 1016 ft | 116 kts | 242° |
| 2026-05-04 12:40 | 52.14362 | 4.29624 | 1013 ft | 116 kts | 241° |
| 2026-05-04 12:40 | 52.13774 | 4.28735 | 1012 ft | 119 kts | 214° |
| 2026-05-04 12:41 | 52.13045 | 4.28071 | 1014 ft | 119 kts | 214° |
| 2026-05-04 12:41 | 52.12348 | 4.27338 | 1015 ft | 118 kts | 217° |
| 2026-05-04 12:41 | 52.11661 | 4.26581 | 1011 ft | 120 kts | 218° |
| 2026-05-04 12:41 | 52.10972 | 4.25804 | 1011 ft | 119 kts | 217° |
| 2026-05-04 12:42 | 52.10299 | 4.25024 | 1013 ft | 118 kts | 218° |
| 2026-05-04 12:42 | 52.09628 | 4.24261 | 1009 ft | 120 kts | 217° |
| 2026-05-04 12:42 | 52.08942 | 4.23488 | 1011 ft | 120 kts | 219° |
| 2026-05-04 12:42 | 52.08249 | 4.22742 | 1014 ft | 119 kts | 217° |
| 2026-05-04 12:43 | 52.07556 | 4.21999 | 1018 ft | 119 kts | 217° |
| 2026-05-04 12:43 | 52.06867 | 4.21275 | 1011 ft | 120 kts | 218° |
| 2026-05-04 12:43 | 52.06166 | 4.20540 | 1016 ft | 118 kts | 216° |
| 2026-05-04 12:43 | 52.05492 | 4.19792 | 1015 ft | 117 kts | 217° |
| 2026-05-04 12:44 | 52.04852 | 4.18973 | 1010 ft | 118 kts | 226° |
| 2026-05-04 12:44 | 52.04241 | 4.18070 | 1011 ft | 118 kts | 227° |
| 2026-05-04 12:44 | 52.03763 | 4.17016 | 1012 ft | 116 kts | 243° |
| 2026-05-04 12:44 | 52.03294 | 4.15945 | 1015 ft | 119 kts | 232° |
| 2026-05-04 12:45 | 52.02727 | 4.14975 | 1019 ft | 117 kts | 230° |
| 2026-05-04 12:45 | 52.02177 | 4.13997 | 1019 ft | 117 kts | 232° |
| 2026-05-04 12:45 | 52.01622 | 4.13028 | 1017 ft | 118 kts | 231° |
| 2026-05-04 12:45 | 52.01043 | 4.12093 | 1017 ft | 116 kts | 230° |
| 2026-05-04 12:46 | 52.00461 | 4.11164 | 1012 ft | 117 kts | 228° |
| 2026-05-04 12:46 | 51.99883 | 4.10247 | 989 ft | 115 kts | 228° |
| 2026-05-04 12:46 | 51.99314 | 4.09381 | 839 ft | 111 kts | 226° |
| 2026-05-04 12:46 | 51.98735 | 4.08577 | 665 ft | 109 kts | 220° |
| 2026-05-04 12:47 | 51.98004 | 4.08223 | 509 ft | 111 kts | 190° |
| 2026-05-04 12:47 | 51.97241 | 4.08209 | 340 ft | 108 kts | 176° |
| 2026-05-04 12:47 | 51.96534 | 4.08294 | 246 ft | 89 kts | 189° |
| 2026-05-04 12:47 | 51.95977 | 4.08261 | 154 ft | 80 kts | 155° |
| 2026-05-04 12:48 | 51.95857 | 4.08872 | 73 ft | 33 kts | 30° |
| 2026-05-04 12:48 | 51.95924 | 4.08974 | 36 ft | 2 kts | 28° |
| 2026-05-04 12:48 | 51.95936 | 4.08992 | 25 ft | 1 kts | 28° |
| 2026-05-04 12:48 | 51.95939 | 4.08994 | 22 ft | 0 kts | 28° |